Weather at Yasser Arafat International Airport [CLOSED]

Public forecast

Using degrees Celsius for public forecast. Weather courtesy of forecast.io.

Closest aviation weather report (METAR) to Yasser Arafat International Airport

Report is more than 6 hours old.

Closest report is El Arish International Airport, 24.9 nm (46.1 km) WSW. Retrieved 2020/12/20 13:00 UTC (1 month ago):

HEAR 201300Z N CHECK TEXT NEW ENDING ADDED OEJNYFYX

Closest aviation forecast (TAF) to Yasser Arafat International Airport

Forecast is more than 12 hours old.

Closest forecast is El Gora Airport, 13.1 nm (24.2 km) SW. Retrieved 2021/01/04 12:00 UTC (16 days ago):

TAF HEGR 041100Z 0412/0518 34009KT 9999 SCT025 BECMG 0416/0418 VRB03KT BECMG 0509/0511 35008KT